Latest Weather Observations for Maroochydore

IDQ60901

Issued at 8:31 am EST Tuesday 26 September 2017 (issued every 10 minutes, with the page automatically refreshed every 10 minutes)

About weather observations | Map of Brisbane area stations | Latest observations for Brisbane area | Other Formats
Station Details ID: 040861 Name: SUNSHINE COAST AIRPORT Lat: -26.60 Lon: 153.09 Height: 3.3 m
Data from the previous 72 hours. | See also: Recent months at Maroochydore
Date/Time
EST
Temp
°C
App
Temp
°C
Dew
Point
°C
Rel
Hum
%
Delta-T
°C
Wind Press
QNH
hPa
Press
MSL
hPa
Rain since
9am
mm
Dir  Spd
km/h
Gust
km/h
Spd
kts
Gust
kts
26/08:30am 23.5 23.0 17.7 70 3.6 NNW 17 22 9 12 1014.0 1014.0 0.0
26/08:00am 22.1 21.3 17.2 74 3.0 NNW 17 26 9 14 1013.9 1013.9 0.0
26/07:30am 20.9 20.7 17.7 82 2.0 NNW 15 20 8 11 1014.1 1014.1 0.0
26/07:00am 20.0 20.2 17.6 86 1.5 NW 13 20 7 11 1014.1 1014.1 0.0
26/06:30am 19.2 19.3 17.5 90 1.0 NNW 13 17 7 9 1013.6 1013.6 0.0
26/06:00am 18.3 17.6 17.3 94 0.6 NNW 17 20 9 11 1013.3 1013.3 0.0
26/05:30am 17.2 16.8 16.1 93 0.7 N 13 15 7 8 1013.0 1013.0 0.0
26/05:00am 17.5 17.2 16.4 93 0.7 N 13 17 7 9 1012.5 1012.5 0.0
26/04:30am 17.7 18.5 16.4 92 0.8 N 7 13 4 7 1012.3 1012.3 0.0
26/04:00am 18.3 18.9 16.8 91 0.9 N 9 13 5 7 1011.6 1011.6 0.0
26/03:30am 18.4 18.2 16.7 90 1.0 N 13 15 7 8 1011.0 1011.0 0.0
26/03:00am 18.6 18.1 16.9 90 1.0 N 15 20 8 11 1010.9 1010.9 0.0
26/02:30am 18.9 19.3 17.2 90 1.0 NE 11 17 6 9 1011.5 1011.5 0.0
26/02:00am 18.5 19.0 16.5 88 1.2 NW 9 15 5 8 1011.6 1011.6 0.0
26/01:30am 19.2 18.7 16.8 86 1.4 N 15 20 8 11 1011.1 1011.1 0.0
26/01:00am 19.3 19.0 17.3 88 1.2 NNW 15 22 8 12 1011.4 1011.4 0.0
26/12:30am 19.5 19.4 16.9 85 1.6 NNW 13 19 7 10 1012.0 1012.0 0.0
26/12:00am 19.8 19.0 17.0 84 1.7 NNW 17 26 9 14 1011.9 1011.9 0.0
 
Date/Time
EST
Temp
°C
App
Temp
°C
Dew
Point
°C
Rel
Hum
%
Delta-T
°C
Wind Press
QNH
hPa
Press
MSL
hPa
Rain since
9am
mm
Dir  Spd
km/h
Gust
km/h
Spd
kts
Gust
kts
25/11:30pm 20.1 18.7 16.9 82 1.9 NNW 20 30 11 16 1011.6 1011.6 0.0
25/11:00pm 20.3 18.9 16.9 81 2.1 N 20 30 11 16 1012.0 1012.0 0.0
25/10:30pm 20.7 19.7 16.7 78 2.4 NNW 17 24 9 13 1012.3 1012.3 0.0
25/10:00pm 21.1 20.1 16.7 76 2.7 NNW 17 22 9 12 1012.6 1012.6 0.0
25/09:30pm 21.1 20.1 16.7 76 2.7 N 17 22 9 12 1012.6 1012.6 0.0
25/09:00pm 21.4 20.5 16.8 75 2.8 N 17 22 9 12 1012.5 1012.5 0.0
25/08:30pm 21.3 20.8 16.9 76 2.7 N 15 22 8 12 1012.3 1012.3 0.0
25/08:00pm 21.8 21.5 17.4 76 2.7 NNW 15 22 8 12 1012.1 1012.1 0.0
25/07:30pm 22.3 22.8 17.4 74 3.0 NNW 11 20 6 11 1011.8 1011.8 0.0
25/07:00pm 22.6 22.7 17.5 73 3.2 NNW 13 22 7 12 1011.5 1011.5 0.0
25/06:30pm 23.3 22.7 17.5 70 3.6 N 17 28 9 15 1011.2 1011.2 0.0
25/06:00pm 23.8 22.6 17.5 68 3.9 N 20 26 11 14 1010.8 1010.8 0.0
25/05:30pm 23.2 23.5 18.7 76 2.8 N 15 24 8 13 1010.6 1010.6 0.0
25/05:00pm 23.9 21.6 18.5 72 3.4 N 28 37 15 20 1010.2 1010.2 0.0
25/04:30pm 24.6 21.5 18.5 69 3.9 N 32 43 17 23 1010.1 1010.1 0.0
25/04:00pm 24.8 21.0 18.0 66 4.3 N 35 48 19 26 1009.8 1009.8 0.0
25/03:30pm 25.7 21.9 18.1 63 4.8 N 35 48 19 26 1009.9 1009.9 0.0
25/03:00pm 26.8 23.4 18.1 59 5.5 NNE 33 43 18 23 1010.1 1010.1 0.0
25/02:30pm 25.9 22.0 17.8 61 5.1 NNE 35 50 19 27 1010.4 1010.4 0.0
25/02:00pm 26.6 22.0 17.9 59 5.5 NNE 39 52 21 28 1010.8 1010.8 0.0
25/01:30pm 28.1 24.7 18.2 55 6.3 NNE 33 48 18 26 1011.1 1011.1 0.0
25/01:00pm 27.2 24.1 18.5 59 5.6 NNE 32 43 17 23 1011.7 1011.7 0.0
25/12:30pm 27.7 25.1 18.7 58 5.8 NNE 30 43 16 23 1012.0 1012.0 0.0
25/12:00pm 29.3 28.1 15.1 42 8.7 NNW 15 26 8 14 1012.7 1012.7 0.0
25/11:30am 31.6 27.6 9.2 25 12.6 NW 20 35 11 19 1012.9 1012.9 0.0
25/11:00am 30.5 26.6 9.4 27 11.8 NW 20 30 11 16 1013.5 1013.5 0.0
25/10:30am 29.2 24.9 9.3 29 11.1 NW 22 33 12 18 1014.1 1014.1 0.0
25/10:00am 28.3 23.4 10.0 32 10.3 NNW 26 37 14 20 1014.0 1014.0 0.0
25/09:30am 27.0 21.5 10.7 36 9.2 NNW 30 43 16 23 1014.3 1014.3 0.0
25/09:00am 25.6 21.0 12.4 43 7.6 NNW 28 39 15 21 1014.5 1014.5 0.0
25/08:30am 24.3 22.4 14.1 53 6.0 NW 17 30 9 16 1014.4 1014.4 0.0
25/08:00am 22.8 20.7 15.1 62 4.6 NNW 20 28 11 15 1014.3 1014.3 0.0
25/07:30am 21.4 20.3 16.4 73 3.0 N 17 24 9 13 1014.3 1014.3 0.0
25/07:00am 19.9 19.6 16.5 81 2.0 N 13 20 7 11 1014.1 1014.1 0.0
25/06:30am 18.6 18.4 16.8 89 1.1 NNW 13 19 7 10 1013.9 1013.9 0.0
25/06:00am 18.2 18.0 16.7 91 0.9 NNW 13 20 7 11 1013.4 1013.4 0.0
25/05:30am 17.9 17.7 16.6 92 0.8 N 13 19 7 10 1013.1 1013.1 0.0
25/05:00am 18.0 17.5 16.9 93 0.7 N 15 19 8 10 1012.7 1012.7 0.0
25/04:30am 18.2 17.6 16.7 91 0.9 N 15 20 8 11 1012.3 1012.3 0.0
25/04:00am 18.2 17.2 16.5 90 1.0 N 17 24 9 13 1011.9 1011.9 0.0
25/03:30am 18.2 17.5 16.4 89 1.1 NNW 15 20 8 11 1011.6 1011.6 0.0
25/03:00am 19.0 17.4 16.0 83 1.8 NNW 19 26 10 14 1011.7 1011.7 0.0
25/02:30am 17.7 17.1 15.7 88 1.2 N 13 17 7 9 1011.9 1011.9 0.0
25/02:00am 18.6 18.2 16.2 86 1.4 NNW 13 17 7 9 1011.9 1011.9 0.0
25/01:30am 19.2 18.6 16.6 85 1.6 NNW 15 20 8 11 1012.1 1012.1 0.0
25/01:00am 19.6 18.3 16.8 84 1.7 NNW 19 30 10 16 1012.5 1012.5 0.0
25/12:30am 19.6 18.6 16.6 83 1.8 NNW 17 24 9 13 1012.6 1012.6 0.0
25/12:00am 19.8 18.3 16.4 81 2.0 NNW 19 24 10 13 1012.8 1012.8 0.0
 
Date/Time
EST
Temp
°C
App
Temp
°C
Dew
Point
°C
Rel
Hum
%
Delta-T
°C
Wind Press
QNH
hPa
Press
MSL
hPa
Rain since
9am
mm
Dir  Spd
km/h
Gust
km/h
Spd
kts
Gust
kts
24/11:30pm 19.9 19.3 16.7 82 1.9 NNW 15 20 8 11 1013.1 1013.1 0.0
24/11:00pm 20.0 19.4 16.6 81 2.1 N 15 20 8 11 1013.2 1013.2 0.0
24/10:30pm 20.3 19.3 16.7 80 2.2 NNW 17 24 9 13 1013.2 1013.2 0.0
24/10:00pm 20.7 19.2 16.7 78 2.4 NNW 20 28 11 15 1013.2 1013.2 0.0
24/09:30pm 21.1 19.2 16.7 76 2.7 NNW 22 32 12 17 1013.1 1013.1 0.0
24/09:00pm 21.4 19.5 16.6 74 2.9 NNW 22 32 12 17 1012.9 1012.9 0.0
24/08:30pm 21.7 19.3 16.4 72 3.2 N 24 37 13 20 1012.6 1012.6 0.0
24/08:00pm 22.1 20.5 16.6 71 3.3 NNW 20 33 11 18 1012.2 1012.2 0.0
24/07:30pm 22.2 20.9 16.7 71 3.4 NNW 19 28 10 15 1011.7 1011.7 0.0
24/07:00pm 22.3 21.4 16.8 71 3.4 N 17 28 9 15 1011.3 1011.3 0.0
24/06:30pm 22.9 20.8 17.1 70 3.6 N 24 35 13 19 1010.9 1010.9 0.0
24/06:00pm 23.3 20.4 17.1 68 3.8 N 28 39 15 21 1010.5 1010.5 0.0
24/05:30pm 24.1 20.9 16.4 62 4.7 N 28 46 15 25 1010.0 1010.0 0.0
24/05:26pm 24.3 21.2 16.6 62 4.7 N 28 46 15 25 1010.0 1010.0 0.0
24/05:00pm 25.2 21.4 16.6 59 5.3 N 32 44 17 24 1009.7 1009.7 0.0
24/04:30pm 25.5 23.5 17.4 61 5.1 N 24 39 13 21 1009.4 1009.4 0.0
24/04:00pm 24.9 21.1 18.1 66 4.3 NNE 35 48 19 26 1009.3 1009.3 0.0
24/03:30pm 25.5 20.8 17.7 62 4.9 NNE 39 54 21 29 1009.4 1009.4 0.0
24/03:00pm 25.7 20.5 17.4 60 5.2 NNE 41 57 22 31 1009.6 1009.6 0.0
24/02:36pm 26.0 20.6 17.1 58 5.5 NNE 41 61 22 33 1009.8 1009.8 0.0
24/02:30pm 26.0 20.4 17.4 59 5.4 N 43 54 23 29 1009.8 1009.8 0.0
24/02:14pm 26.3 21.4 17.4 58 5.6 N 39 57 21 31 1010.0 1010.0 0.0
24/02:00pm 26.6 22.1 18.2 60 5.3 NNE 39 52 21 28 1010.2 1010.2 0.0
24/01:30pm 26.7 23.5 18.6 61 5.2 NNE 33 46 18 25 1010.6 1010.6 0.0
24/01:00pm 26.8 23.1 18.4 60 5.3 NNE 35 50 19 27 1011.0 1011.0 0.0
24/12:30pm 27.6 24.5 18.3 57 5.9 NNE 32 46 17 25 1011.4 1011.4 0.0
24/12:00pm 28.9 27.3 16.5 47 7.7 N 20 41 11 22 1012.0 1012.0 0.0
24/11:30am 31.0 27.4 10.4 28 11.8 NNW 20 32 11 17 1012.5 1012.5 0.0
24/11:00am 30.2 25.8 9.1 27 11.8 NW 22 32 12 17 1013.0 1013.0 0.0
24/10:30am 29.6 26.9 12.9 35 9.9 NNW 19 26 10 14 1013.5 1013.5 0.0
24/10:00am 27.7 25.1 13.3 41 8.5 NW 19 26 10 14 1013.9 1013.9 0.0
24/09:30am 26.7 24.7 13.8 45 7.6 NW 17 24 9 13 1014.3 1014.3 0.0
24/09:00am 25.4 22.1 13.9 49 6.8 NNW 24 35 13 19 1014.1 1014.1 0.0
24/08:30am 23.7 22.1 16.5 64 4.4 N 20 28 11 15 1014.3 1014.3 0.0
24/08:00am 22.3 21.5 17.0 72 3.2 NNW 17 26 9 14 1014.6 1014.6 0.0
24/07:30am 20.7 20.5 16.7 78 2.4 NNW 13 19 7 10 1014.8 1014.8 0.0
24/07:00am 19.2 19.0 16.6 85 1.6 NNW 13 19 7 10 1014.7 1014.7 0.0
24/06:30am 17.9 17.9 16.2 90 1.0 N 11 15 6 8 1014.4 1014.4 0.0
24/06:00am 16.9 16.7 15.6 92 0.8 N 11 17 6 9 1014.2 1014.2 0.0
24/05:30am 16.3 15.7 14.7 90 0.9 N 11 15 6 8 1013.9 1013.9 0.0
24/05:00am 16.8 16.2 14.6 87 1.3 N 11 17 6 9 1013.8 1013.8 0.0
24/04:30am 17.4 16.5 14.9 85 1.4 N 13 17 7 9 1013.5 1013.5 0.0
24/04:00am 17.5 16.6 14.8 84 1.6 N 13 17 7 9 1013.2 1013.2 0.0
24/03:30am 17.7 16.8 14.8 83 1.7 NNW 13 19 7 10 1013.1 1013.1 0.0
24/03:00am 17.9 16.8 14.4 80 2.0 NNW 13 17 7 9 1013.1 1013.1 0.0
24/02:30am 17.9 17.0 14.8 82 1.8 NNW 13 19 7 10 1013.1 1013.1 0.0
24/02:00am 17.0 16.5 14.8 87 1.3 N 11 15 6 8 1013.3 1013.3 0.0
24/01:30am 17.3 17.2 14.9 86 1.4 N 9 15 5 8 1013.6 1013.6 0.0
24/01:00am 17.7 17.2 14.8 83 1.7 NNW 11 13 6 7 1014.0 1014.0 0.0
24/12:30am 19.1 18.0 15.4 79 2.2 NNW 15 20 8 11 1014.3 1014.3 0.0
24/12:00am 18.7 17.9 15.2 80 2.0 NNW 13 19 7 10 1014.7 1014.7 0.0
 
Date/Time
EST
Temp
°C
App
Temp
°C
Dew
Point
°C
Rel
Hum
%
Delta-T
°C
Wind Press
QNH
hPa
Press
MSL
hPa
Rain since
9am
mm
Dir  Spd
km/h
Gust
km/h
Spd
kts
Gust
kts
23/11:30pm 19.0 17.1 15.3 79 2.2 NNW 19 26 10 14 1014.8 1014.8 0.0
23/11:00pm 19.5 17.7 14.5 73 2.9 N 17 28 9 15 1014.8 1014.8 0.0
23/10:30pm 19.7 18.2 14.1 70 3.2 N 15 20 8 11 1014.9 1014.9 0.0
23/10:00pm 20.2 18.0 13.2 64 4.0 NNW 17 24 9 13 1015.1 1015.1 0.0
23/09:30pm 20.6 18.2 12.8 61 4.4 NNW 17 24 9 13 1015.1 1015.1 0.0
23/09:00pm 20.7 18.5 13.2 62 4.3 NNW 17 24 9 13 1015.1 1015.1 0.0
23/08:30pm 21.0 19.0 13.9 64 4.1 N 17 24 9 13 1014.8 1014.8 0.0
23/08:00pm 21.5 19.8 14.6 65 4.0 N 17 22 9 12 1014.6 1014.6 0.0
23/07:30pm 21.7 20.0 14.8 65 4.1 N 17 20 9 11 1014.2 1014.2 0.0
23/07:00pm 22.5 21.6 14.9 62 4.5 NNW 13 20 7 11 1013.7 1013.7 0.0
23/06:30pm 23.2 21.0 15.0 60 4.9 N 20 30 11 16 1013.3 1013.3 0.0
23/06:00pm 23.0 21.3 15.8 64 4.3 N 19 30 10 16 1012.7 1012.7 0.0
23/05:30pm 23.2 21.5 16.3 65 4.2 N 20 30 11 16 1012.5 1012.5 0.0
23/05:00pm 23.8 19.8 16.6 64 4.4 NNE 33 43 18 23 1012.2 1012.2 0.0
23/04:30pm 24.5 19.9 16.2 60 5.1 N 35 46 19 25 1012.0 1012.0 0.0
23/04:00pm 25.2 20.6 16.1 57 5.6 N 35 46 19 25 1011.9 1011.9 0.0
23/03:30pm 25.6 21.1 16.5 57 5.6 N 35 44 19 24 1012.0 1012.0 0.0
23/03:00pm 26.9 23.8 17.4 56 6.0 NNE 30 37 16 20 1012.3 1012.3 0.0
23/02:30pm 25.8 22.1 17.4 59 5.2 NNE 33 44 18 24 1012.6 1012.6 0.0
23/02:00pm 26.3 22.4 17.9 60 5.3 NNE 35 46 19 25 1012.9 1012.9 0.0
23/01:30pm 26.6 23.1 17.4 57 5.8 NNE 32 43 17 23 1013.3 1013.3 0.0
23/01:00pm 26.3 23.1 18.2 61 5.1 NNE 32 41 17 22 1013.9 1013.9 0.0
23/12:30pm 26.0 22.9 17.4 59 5.4 NNE 30 41 16 22 1014.2 1014.2 0.0
23/12:00pm 26.9 23.4 17.4 56 6.0 NNE 32 39 17 21 1014.6 1014.6 0.0
23/11:30am 27.5 25.9 16.5 51 6.8 NNE 20 32 11 17 1015.1 1015.1 0.0
23/11:00am 28.3 25.2 12.2 37 9.3 NW 20 28 11 15 1015.6 1015.6 0.0
23/10:30am 27.2 24.6 13.9 44 7.9 NNW 20 30 11 16 1016.3 1016.3 0.0
23/10:00am 26.2 24.1 14.6 48 6.9 NW 19 28 10 15 1016.8 1016.8 0.0
23/09:30am 25.4 23.6 16.0 56 5.7 NW 20 32 11 17 1017.1 1017.1 0.0
23/09:00am 23.9 21.1 16.4 63 4.6 NW 26 39 14 21 1017.3 1017.3 1.4

Latest Capital City Observations: Canberra | Sydney | Melbourne | Brisbane | Adelaide | Perth | Hobart | Darwin

Other Formats:

Comma delimited format used in spreadsheet applications
http://www.bom.gov.au/fwo/IDQ60901/IDQ60901.94569.axf

JavaScript Object Notation format (JSON) in row-major order
http://www.bom.gov.au/fwo/IDQ60901/IDQ60901.94569.json